South Carver, Massachusetts
Current Conditions -  °F | °C
As of 10:59 PM on Saturday 20 Dec 2014 (Local Time) from KPYM Reporting Station
Light Rain Light Rain  
Wind Chill: 32°   Ceiling: 1400
Heat Index: 36°   Visibility: 7mi
Dew Point: 34°   Wind: 5mph
Humidity: 93%   Direction: 80°E
Pressure: 30.27"   Gusts: NA
Location:  41.84°N, 70.75°W
Report Text: KPYM 210359Z AUTO 08004KT 7SM -RA BKN014 OVC023 02/01 A3027 RMK AO2 P0000 T00220011
Loading
Personal Weather Stations






























Interactive Weather Map New forecast layout! Learn more

10-Day Weather Forecast

Advertisements
Track Severe Weather on mobile